Time;durP1;ratioP1;P1;durP2;ratioP2;P2;SDS_P1;SDS_P2;PMS_P1;PMS_P2;Temp;Humidity;BMP_temperature;BMP_pressure;BME280_temperature;BME280_humidity;BME280_pressure;Samples;Min_cycle;Max_cycle;Signal;HPM_P1;HPM_P2
2023/07/25 00:01:11;;;;;;;2.83;1.10;;;22.30;58.50;;;;;;5113268;28;20722;-54
2023/07/25 00:03:39;;;;;;;2.55;1.27;;;22.30;58.50;;;;;;5113372;28;20189;-55
2023/07/25 00:06:06;;;;;;;3.13;1.10;;;22.30;58.40;;;;;;5115185;27;20229;-53
2023/07/25 00:08:35;;;;;;;3.78;1.13;;;22.30;58.40;;;;;;5134221;27;20195;-53
2023/07/25 00:11:02;;;;;;;3.60;1.20;;;22.30;58.40;;;;;;5133534;27;20271;-56
2023/07/25 00:13:30;;;;;;;2.42;1.10;;;22.20;58.20;;;;;;5134095;27;20203;-52
2023/07/25 00:15:58;;;;;;;2.38;0.88;;;22.30;58.30;;;;;;5121304;27;20278;-55
2023/07/25 00:18:26;;;;;;;2.92;0.90;;;22.30;58.30;;;;;;5092798;28;20249;-54
2023/07/25 00:20:54;;;;;;;2.80;1.25;;;22.20;58.20;;;;;;5092698;28;20222;-50
2023/07/25 00:23:21;;;;;;;1.98;1.05;;;22.20;58.20;;;;;;5112492;28;20196;-58
2023/07/25 00:25:49;;;;;;;3.75;1.33;;;22.20;58.20;;;;;;5113522;28;20217;-56
2023/07/25 00:28:16;;;;;;;3.42;1.13;;;22.20;58.20;;;;;;5112890;28;20688;-58
2023/07/25 00:30:43;;;;;;;3.15;0.90;;;22.20;58.20;;;;;;5112304;28;20224;-57
2023/07/25 00:33:11;;;;;;;3.40;1.40;;;22.20;58.20;;;;;;5112876;28;20211;-57
2023/07/25 00:35:40;;;;;;;2.17;0.90;;;22.20;58.20;;;;;;5112548;28;20220;-57
2023/07/25 00:38:07;;;;;;;2.38;1.48;;;22.20;58.20;;;;;;5112839;28;20628;-55
2023/07/25 00:40:39;;;;;;;2.53;1.10;;;22.20;58.20;;;;;;5112618;28;20304;-57
2023/07/25 00:43:07;;;;;;;1.73;1.20;;;22.20;58.20;;;;;;5112688;27;20224;-54
2023/07/25 00:48:16;;;;;;;2.30;1.10;;;22.20;58.10;;;;;;5085833;28;20284;-56
2023/07/25 00:50:45;;;;;;;2.15;1.10;;;22.20;58.10;;;;;;5112424;28;20213;-57
2023/07/25 00:53:14;;;;;;;2.90;1.30;;;22.20;58.10;;;;;;5112762;28;20222;-57
2023/07/25 00:55:41;;;;;;;2.80;1.40;;;22.20;58.20;;;;;;5112813;28;20213;-56
2023/07/25 00:58:09;;;;;;;2.95;1.20;;;22.20;58.10;;;;;;5112442;28;20209;-55
2023/07/25 01:00:41;;;;;;;3.75;1.35;;;22.20;58.10;;;;;;5112180;28;20728;-57
2023/07/25 01:03:08;;;;;;;2.65;1.30;;;22.20;58.00;;;;;;5112963;28;20241;-54
2023/07/25 01:05:39;;;;;;;4.15;1.23;;;22.20;58.00;;;;;;5112737;28;20217;-57
2023/07/25 01:08:09;;;;;;;2.72;1.13;;;22.20;58.00;;;;;;5127764;28;20189;-57
2023/07/25 01:10:38;;;;;;;2.03;1.20;;;22.20;58.00;;;;;;5132673;27;20212;-55
2023/07/25 01:13:05;;;;;;;2.75;1.50;;;22.20;58.00;;;;;;5133119;27;20192;-57
2023/07/25 01:15:33;;;;;;;2.22;1.33;;;22.20;58.00;;;;;;5133100;28;20212;-55
2023/07/25 01:18:01;;;;;;;2.97;1.10;;;22.10;57.90;;;;;;5132905;28;20216;-57
2023/07/25 01:20:29;;;;;;;3.50;1.30;;;22.20;57.90;;;;;;5132466;28;20219;-55
2023/07/25 01:22:58;;;;;;;3.42;1.40;;;22.20;57.90;;;;;;5132866;28;20191;-56
2023/07/25 01:25:27;;;;;;;2.58;1.17;;;22.20;57.90;;;;;;5132953;28;20216;-56
2023/07/25 01:27:54;;;;;;;2.92;1.50;;;22.20;57.90;;;;;;5132998;27;20185;-56
2023/07/25 01:30:22;;;;;;;1.42;1.20;;;22.10;57.80;;;;;;5132477;28;20224;-58
2023/07/25 01:32:49;;;;;;;2.58;1.38;;;22.10;57.80;;;;;;5132579;28;20203;-55
2023/07/25 01:35:16;;;;;;;2.20;1.30;;;22.10;57.80;;;;;;5132854;28;20199;-57
2023/07/25 01:37:43;;;;;;;3.40;1.48;;;22.10;57.80;;;;;;5132484;27;20204;-53
2023/07/25 01:40:22;;;;;;;1.15;0.98;;;22.10;57.80;;;;;;5132220;28;20638;-57
2023/07/25 01:43:31;;;;;;;1.35;1.20;;;22.20;57.90;;;;;;5079759;28;20242;-54
2023/07/25 01:45:58;;;;;;;1.50;1.10;;;22.10;57.70;;;;;;5132725;28;20265;-52
2023/07/25 01:48:25;;;;;;;3.47;1.40;;;22.10;57.70;;;;;;5132541;28;20192;-60
2023/07/25 01:50:53;;;;;;;2.92;1.10;;;22.10;57.70;;;;;;5132541;27;20223;-58
2023/07/25 01:53:20;;;;;;;3.15;1.25;;;22.10;57.70;;;;;;5132614;27;20185;-53
2023/07/25 01:55:48;;;;;;;2.88;1.25;;;22.10;57.70;;;;;;5133005;27;20257;-52
2023/07/25 01:58:15;;;;;;;2.60;1.10;;;22.10;57.70;;;;;;5132949;27;20233;-55
2023/07/25 02:00:44;;;;;;;1.88;1.30;;;22.20;57.80;;;;;;5136229;27;20216;-55
2023/07/25 02:03:15;;;;;;;4.25;1.30;;;22.10;57.60;;;;;;5136333;27;20241;-57
2023/07/25 02:05:42;;;;;;;1.33;1.15;;;22.10;57.60;;;;;;5116284;27;20217;-55
2023/07/25 02:08:13;;;;;;;2.38;1.20;;;22.10;57.60;;;;;;5116159;28;20185;-57
2023/07/25 02:10:41;;;;;;;4.03;1.40;;;22.10;57.60;;;;;;5115335;28;20274;-58
2023/07/25 02:13:08;;;;;;;3.50;1.27;;;22.10;57.60;;;;;;5115877;28;20242;-56
2023/07/25 02:15:37;;;;;;;3.17;1.10;;;22.10;57.50;;;;;;5115505;28;20773;-56
2023/07/25 02:18:05;;;;;;;2.78;1.30;;;22.10;57.50;;;;;;5115259;27;20252;-55
2023/07/25 02:20:33;;;;;;;6.07;1.88;;;22.10;57.50;;;;;;5115277;28;20213;-58
2023/07/25 02:23:01;;;;;;;4.07;1.70;;;22.10;57.50;;;;;;5115794;27;20181;-56
2023/07/25 02:25:29;;;;;;;2.40;1.20;;;22.10;57.40;;;;;;5115194;28;20193;-55
2023/07/25 02:27:56;;;;;;;2.35;1.58;;;22.00;57.40;;;;;;5115554;28;20193;-54
2023/07/25 02:30:23;;;;;;;1.98;1.15;;;22.10;57.40;;;;;;5114903;28;20236;-53
2023/07/25 02:32:51;;;;;;;3.50;1.50;;;22.10;57.50;;;;;;5115638;28;20189;-53
2023/07/25 02:35:19;;;;;;;3.08;1.30;;;22.10;57.40;;;;;;5115564;28;20280;-55
2023/07/25 02:37:47;;;;;;;1.58;1.20;;;22.00;57.40;;;;;;5115460;28;20209;-58
2023/07/25 02:40:15;;;;;;;2.83;1.40;;;22.00;57.30;;;;;;5114961;28;20246;-56
2023/07/25 02:42:43;;;;;;;2.45;1.27;;;22.00;57.40;;;;;;5115351;28;20182;-51
2023/07/25 02:45:11;;;;;;;2.45;1.40;;;22.00;57.40;;;;;;5115015;28;20197;-54
2023/07/25 02:47:38;;;;;;;1.80;1.17;;;22.00;57.40;;;;;;5115691;28;20205;-54
2023/07/25 02:50:07;;;;;;;2.00;1.30;;;22.10;57.40;;;;;;5114530;28;20189;-51
2023/07/25 02:52:36;;;;;;;1.90;1.30;;;22.00;57.40;;;;;;5115401;28;20220;-55
2023/07/25 02:55:05;;;;;;;2.00;1.15;;;22.00;57.30;;;;;;5114984;28;20181;-52
2023/07/25 02:57:32;;;;;;;2.05;1.30;;;22.00;57.40;;;;;;5115156;28;20266;-55
2023/07/25 03:00:00;;;;;;;2.30;1.10;;;22.00;57.30;;;;;;5114338;28;20192;-52
2023/07/25 03:02:27;;;;;;;2.65;1.35;;;22.00;57.30;;;;;;5115075;28;20217;-53
2023/07/25 03:04:55;;;;;;;2.45;1.23;;;22.00;57.30;;;;;;5114883;28;20242;-52
2023/07/25 03:07:22;;;;;;;3.33;1.23;;;22.00;57.30;;;;;;5116993;27;20220;-53
2023/07/25 03:09:51;;;;;;;2.20;1.30;;;22.00;57.30;;;;;;5134163;27;20192;-52
2023/07/25 03:12:19;;;;;;;2.55;1.40;;;22.00;57.30;;;;;;5134729;27;20854;-55
2023/07/25 03:14:46;;;;;;;2.53;1.25;;;22.00;57.30;;;;;;5135312;27;20329;-55
2023/07/25 03:17:14;;;;;;;2.35;1.48;;;22.00;57.30;;;;;;5135086;27;20251;-53
2023/07/25 03:19:50;;;;;;;2.47;1.45;;;22.00;57.30;;;;;;5134740;27;20224;-49
2023/07/25 03:22:19;;;;;;;3.60;1.38;;;22.00;57.30;;;;;;5134939;27;20305;-53
2023/07/25 03:24:47;;;;;;;2.45;1.38;;;22.00;57.30;;;;;;5134985;27;20220;-53
2023/07/25 03:27:16;;;;;;;1.63;1.38;;;22.00;57.30;;;;;;5135048;27;20265;-56
2023/07/25 03:29:44;;;;;;;2.75;1.55;;;22.00;57.30;;;;;;5093557;28;20187;-54
2023/07/25 03:32:11;;;;;;;3.13;1.80;;;22.00;57.30;;;;;;5093793;28;20245;-54
2023/07/25 03:34:39;;;;;;;3.05;1.50;;;22.00;57.30;;;;;;5113665;28;20204;-50
2023/07/25 03:37:07;;;;;;;2.97;1.42;;;22.00;57.30;;;;;;5114365;28;20224;-55
2023/07/25 03:39:34;;;;;;;2.88;1.60;;;22.00;57.30;;;;;;5113234;28;20662;-54
2023/07/25 03:42:02;;;;;;;3.78;1.73;;;22.00;57.30;;;;;;5114167;28;20216;-54
2023/07/25 03:44:31;;;;;;;2.97;1.60;;;22.00;57.30;;;;;;5114210;28;20185;-56
2023/07/25 03:46:58;;;;;;;4.00;1.67;;;22.00;57.30;;;;;;5114102;28;20286;-54
2023/07/25 03:49:26;;;;;;;1.55;1.42;;;22.00;57.20;;;;;;5113799;27;20224;-55
2023/07/25 03:51:53;;;;;;;1.67;1.45;;;22.00;57.30;;;;;;5114170;28;20220;-55
2023/07/25 03:54:23;;;;;;;2.85;1.48;;;22.00;57.20;;;;;;5113739;27;20636;-49
2023/07/25 03:56:51;;;;;;;3.75;1.50;;;22.00;57.20;;;;;;5114062;28;20209;-53
2023/07/25 03:59:19;;;;;;;2.15;1.50;;;22.00;57.20;;;;;;5113483;28;20296;-53
2023/07/25 04:01:48;;;;;;;2.72;1.40;;;22.00;57.20;;;;;;5113568;28;20661;-53
2023/07/25 04:04:16;;;;;;;2.85;1.88;;;21.90;57.10;;;;;;5113753;27;20213;-55
2023/07/25 04:06:43;;;;;;;2.22;1.50;;;22.00;57.20;;;;;;5113462;28;20272;-53
2023/07/25 04:09:11;;;;;;;3.05;1.40;;;22.00;57.20;;;;;;5127103;27;20185;-55
2023/07/25 04:11:38;;;;;;;2.40;1.45;;;22.00;57.20;;;;;;5134052;27;20218;-52
2023/07/25 04:14:06;;;;;;;2.55;1.65;;;21.90;57.10;;;;;;5133951;27;20246;-54
2023/07/25 04:16:33;;;;;;;1.92;1.52;;;22.00;57.20;;;;;;5134136;27;20285;-55
2023/07/25 04:19:02;;;;;;;6.97;2.30;;;21.90;57.10;;;;;;5133386;27;20219;-56
2023/07/25 04:21:29;;;;;;;3.47;1.50;;;21.90;57.10;;;;;;5133477;27;20727;-56
2023/07/25 04:23:57;;;;;;;2.63;1.63;;;21.90;57.10;;;;;;5133696;27;20192;-57
2023/07/25 04:26:24;;;;;;;2.85;1.52;;;21.90;57.10;;;;;;5133807;27;20256;-55
2023/07/25 04:28:52;;;;;;;2.42;1.52;;;22.00;57.20;;;;;;5133269;27;20637;-60
2023/07/25 04:31:19;;;;;;;3.95;1.70;;;21.90;57.10;;;;;;5133231;27;20235;-57
2023/07/25 04:33:46;;;;;;;3.97;1.60;;;21.90;57.10;;;;;;5133212;27;20657;-51
2023/07/25 04:36:30;;;;;;;2.17;1.42;;;21.90;57.20;;;;;;5133399;27;20212;-55
2023/07/25 04:38:58;;;;;;;2.70;1.65;;;21.90;57.20;;;;;;5131447;27;20228;-57
2023/07/25 04:41:26;;;;;;;2.53;1.40;;;21.90;57.10;;;;;;5133432;27;20216;-53
2023/07/25 04:43:53;;;;;;;2.67;1.52;;;22.00;57.20;;;;;;5133358;27;20189;-53
2023/07/25 04:46:20;;;;;;;5.00;1.67;;;21.90;57.10;;;;;;5133068;27;20277;-52
2023/07/25 04:48:48;;;;;;;3.28;1.60;;;22.00;57.20;;;;;;5133349;27;20188;-53
2023/07/25 04:51:15;;;;;;;2.60;1.38;;;21.90;57.10;;;;;;5132896;27;20215;-53
2023/07/25 04:53:44;;;;;;;3.55;1.70;;;21.90;57.20;;;;;;5133027;27;20199;-56
2023/07/25 04:56:12;;;;;;;2.15;1.55;;;21.90;57.10;;;;;;5133606;27;20220;-53
2023/07/25 04:58:46;;;;;;;2.75;1.80;;;21.90;57.20;;;;;;5132637;27;20652;-52
2023/07/25 05:01:14;;;;;;;3.47;1.48;;;21.90;57.10;;;;;;5132845;27;20216;-56
2023/07/25 05:03:42;;;;;;;1.90;1.50;;;21.90;57.10;;;;;;5129725;27;20250;-55
2023/07/25 05:06:11;;;;;;;3.17;1.58;;;21.90;57.10;;;;;;5112524;28;20213;-56
2023/07/25 05:08:38;;;;;;;5.07;1.60;;;21.90;57.10;;;;;;5112603;28;20228;-53
2023/07/25 05:11:08;;;;;;;2.85;1.83;;;21.90;57.10;;;;;;5112385;28;20224;-56
2023/07/25 05:13:35;;;;;;;4.20;1.63;;;21.90;57.10;;;;;;5112725;28;20231;-53
2023/07/25 05:16:03;;;;;;;2.15;1.38;;;21.90;57.10;;;;;;5112747;28;20310;-58
2023/07/25 05:18:30;;;;;;;2.95;1.60;;;21.90;57.10;;;;;;5112394;28;20209;-53
2023/07/25 05:21:21;;;;;;;3.03;1.80;;;21.90;57.10;;;;;;5112046;28;20227;-54
2023/07/25 05:23:49;;;;;;;2.42;1.50;;;21.90;57.10;;;;;;5112485;28;20279;-54
2023/07/25 05:26:17;;;;;;;2.85;1.70;;;21.90;57.10;;;;;;5112357;28;20217;-54
2023/07/25 05:28:45;;;;;;;2.30;1.60;;;21.80;57.10;;;;;;5112733;28;20185;-54
2023/07/25 05:31:12;;;;;;;3.45;1.70;;;21.90;57.10;;;;;;5111617;28;20719;-52
2023/07/25 05:33:39;;;;;;;4.28;1.98;;;21.90;57.10;;;;;;5114111;28;20242;-54
2023/07/25 05:36:07;;;;;;;2.00;1.60;;;21.90;57.10;;;;;;5116494;28;20228;-54
2023/07/25 05:38:40;;;;;;;4.95;1.80;;;21.90;57.10;;;;;;5116448;28;20231;-54
2023/07/25 05:41:08;;;;;;;4.25;2.00;;;21.90;57.20;;;;;;5116159;28;20303;-58
2023/07/25 05:43:36;;;;;;;4.07;1.80;;;21.80;57.30;;;;;;5116415;28;20181;-56
2023/07/25 05:46:03;;;;;;;5.80;1.95;;;21.80;57.40;;;;;;5116116;28;20650;-58
2023/07/25 05:48:31;;;;;;;3.63;1.80;;;21.80;57.40;;;;;;5116313;27;20213;-56
2023/07/25 05:50:58;;;;;;;5.43;1.90;;;21.80;57.40;;;;;;5116103;28;20295;-55
2023/07/25 05:53:25;;;;;;;2.42;1.80;;;21.90;57.50;;;;;;5116398;27;20181;-55
2023/07/25 05:55:52;;;;;;;3.97;1.55;;;21.90;57.50;;;;;;5116164;28;20186;-57
2023/07/25 05:58:20;;;;;;;3.97;1.85;;;21.90;57.50;;;;;;5116112;28;20193;-58
2023/07/25 06:00:49;;;;;;;6.85;2.10;;;21.90;57.50;;;;;;5115741;28;20209;-57
2023/07/25 06:03:17;;;;;;;2.90;1.55;;;21.90;57.50;;;;;;5116141;28;20196;-55
2023/07/25 06:05:44;;;;;;;3.00;1.80;;;21.90;57.60;;;;;;5115546;28;20186;-56
2023/07/25 06:08:33;;;;;;;3.53;1.70;;;21.90;57.60;;;;;;5115982;28;20220;-58
2023/07/25 06:11:01;;;;;;;3.25;1.60;;;21.90;57.70;;;;;;5136377;27;20228;-58
2023/07/25 06:13:28;;;;;;;3.70;1.95;;;21.90;57.70;;;;;;5136287;27;20180;-56
2023/07/25 06:15:57;;;;;;;9.95;1.88;;;21.90;57.70;;;;;;5135847;27;20220;-56
2023/07/25 06:18:24;;;;;;;4.78;2.00;;;21.90;57.70;;;;;;5136069;27;20188;-57
2023/07/25 06:20:51;;;;;;;5.72;1.90;;;21.80;57.60;;;;;;5135565;27;20331;-56
2023/07/25 06:23:20;;;;;;;5.55;1.73;;;21.90;57.70;;;;;;5135475;27;20189;-61
2023/07/25 06:25:47;;;;;;;6.13;2.67;;;21.90;57.70;;;;;;5135650;27;20189;-56
2023/07/25 06:28:15;;;;;;;2.38;1.50;;;21.90;57.70;;;;;;5136040;27;20224;-57
2023/07/25 06:30:42;;;;;;;3.67;1.98;;;21.90;57.70;;;;;;5134978;27;20224;-61
2023/07/25 06:33:13;;;;;;;3.17;1.60;;;21.90;57.80;;;;;;5135663;27;20216;-58
2023/07/25 06:35:40;;;;;;;4.55;1.80;;;21.90;57.80;;;;;;5135754;27;20191;-56
2023/07/25 06:38:08;;;;;;;8.02;1.70;;;21.80;57.70;;;;;;5136359;27;20217;-62
2023/07/25 06:40:35;;;;;;;3.95;2.15;;;21.90;57.70;;;;;;5134987;27;20221;-59
2023/07/25 06:43:02;;;;;;;3.45;1.90;;;21.90;57.70;;;;;;5136175;27;20265;-58
2023/07/25 06:45:30;;;;;;;7.13;2.50;;;21.80;57.70;;;;;;5134210;27;20185;-56
2023/07/25 06:47:57;;;;;;;3.03;1.65;;;21.90;57.70;;;;;;5135595;27;20220;-54
2023/07/25 06:50:26;;;;;;;3.00;1.90;;;21.90;57.80;;;;;;5135056;27;20185;-56
2023/07/25 06:52:53;;;;;;;2.70;2.10;;;21.90;57.70;;;;;;5135729;27;20212;-52
2023/07/25 06:55:21;;;;;;;6.60;1.90;;;21.80;57.70;;;;;;5134921;27;20184;-55
2023/07/25 06:57:48;;;;;;;6.60;1.73;;;21.90;57.80;;;;;;5135371;27;20227;-55
2023/07/25 07:00:16;;;;;;;2.95;1.50;;;21.90;57.80;;;;;;5134863;27;20208;-57
2023/07/25 07:02:43;;;;;;;2.25;1.42;;;21.80;57.70;;;;;;5135796;27;20303;-56
2023/07/25 07:05:11;;;;;;;5.88;1.75;;;21.80;57.70;;;;;;5119578;27;20185;-59
2023/07/25 07:07:41;;;;;;;3.45;1.92;;;21.90;57.70;;;;;;5114526;28;20774;-54
2023/07/25 07:10:09;;;;;;;2.47;1.63;;;21.80;57.70;;;;;;5114382;27;20228;-57
2023/07/25 07:12:38;;;;;;;2.40;1.63;;;21.90;57.70;;;;;;5100961;28;20301;-56
2023/07/25 07:15:06;;;;;;;6.93;1.77;;;21.90;57.60;;;;;;5105721;28;20197;-56
2023/07/25 07:17:33;;;;;;;3.63;1.63;;;22.00;57.60;;;;;;5104872;28;20230;-57
2023/07/25 07:20:01;;;;;;;5.47;2.00;;;22.00;57.50;;;;;;5110432;28;20274;-57
2023/07/25 07:22:28;;;;;;;4.57;1.83;;;22.00;57.40;;;;;;5113225;27;20213;-57
2023/07/25 07:25:00;;;;;;;11.35;1.98;;;22.10;57.40;;;;;;5113213;28;20678;-58
2023/07/25 07:27:45;;;;;;;5.88;2.00;;;22.20;57.40;;;;;;5116150;27;20251;-56
2023/07/25 07:30:13;;;;;;;2.88;1.90;;;22.20;57.40;;;;;;5112803;28;20229;-59
2023/07/25 07:32:40;;;;;;;5.40;2.00;;;22.30;57.50;;;;;;5111578;28;20217;-57
2023/07/25 07:35:09;;;;;;;4.13;2.20;;;22.30;57.50;;;;;;5106453;28;20201;-56
2023/07/25 07:49:44;;;;;;;6.80;2.42;;;22.40;57.20;;;;;;5090889;28;20194;-58
2023/07/25 07:52:11;;;;;;;4.80;1.80;;;22.40;57.20;;;;;;5087801;28;20386;-57
2023/07/25 07:57:42;;;;;;;3.67;1.83;;;22.40;57.20;;;;;;5027131;28;20313;-58
2023/07/25 08:00:19;;;;;;;4.80;1.65;;;22.40;57.20;;;;;;5029164;28;20262;-58
2023/07/25 08:02:47;;;;;;;2.60;1.60;;;22.40;57.20;;;;;;5066078;28;20221;-54
2023/07/25 08:05:14;;;;;;;3.35;1.70;;;22.40;57.10;;;;;;5068438;28;20191;-56
2023/07/25 08:08:23;;;;;;;4.75;1.77;;;22.40;57.20;;;;;;5067581;28;20221;-54
2023/07/25 08:10:53;;;;;;;3.50;1.63;;;22.40;57.10;;;;;;5066867;28;20285;-55
2023/07/25 08:13:22;;;;;;;3.80;1.88;;;22.40;57.20;;;;;;5065035;28;20232;-56
2023/07/25 08:15:50;;;;;;;4.53;1.83;;;22.40;57.20;;;;;;5066979;28;20194;-56
2023/07/25 08:18:17;;;;;;;4.30;1.65;;;22.40;57.20;;;;;;5069990;28;20313;-55
2023/07/25 08:20:45;;;;;;;17.67;2.60;;;22.50;57.60;;;;;;5067649;28;20593;-52
2023/07/25 08:23:13;;;;;;;7.18;2.17;;;22.50;57.60;;;;;;5072665;28;20309;-55
2023/07/25 08:25:40;;;;;;;4.13;1.90;;;22.50;57.60;;;;;;5068685;28;20195;-56
2023/07/25 08:28:45;;;;;;;3.65;1.73;;;22.50;57.50;;;;;;5064911;28;20233;-55
2023/07/25 08:31:14;;;;;;;2.63;1.42;;;22.50;57.30;;;;;;5009744;28;20230;-58
2023/07/25 08:33:42;;;;;;;3.05;1.73;;;22.50;57.30;;;;;;5067740;28;20248;-56
2023/07/25 08:36:11;;;;;;;5.18;2.10;;;22.50;57.30;;;;;;5067246;28;20194;-56
2023/07/25 08:38:41;;;;;;;5.88;1.90;;;22.70;57.80;;;;;;5057111;28;20195;-56
2023/07/25 08:41:11;;;;;;;4.07;2.22;;;22.70;57.80;;;;;;5063417;28;20225;-58
2023/07/25 08:43:43;;;;;;;3.38;1.75;;;22.70;57.60;;;;;;5067517;28;20191;-57
2023/07/25 08:46:11;;;;;;;3.83;1.80;;;22.80;57.60;;;;;;5067325;28;20559;-57
2023/07/25 08:48:41;;;;;;;3.20;1.88;;;22.80;57.50;;;;;;5048697;28;20206;-57
2023/07/25 08:51:14;;;;;;;5.50;2.10;;;22.80;57.30;;;;;;5055405;28;20273;-58
2023/07/25 08:53:47;;;;;;;3.88;1.70;;;22.80;57.20;;;;;;5065825;28;20196;-57
2023/07/25 08:56:15;;;;;;;3.17;1.85;;;22.80;57.10;;;;;;5065410;28;20241;-57
2023/07/25 08:58:44;;;;;;;1.70;1.60;;;22.90;57.00;;;;;;5067224;28;20236;-57
2023/07/25 09:01:12;;;;;;;3.55;1.83;;;22.90;57.00;;;;;;5067012;28;20230;-56
2023/07/25 09:03:42;;;;;;;4.57;1.73;;;22.90;56.90;;;;;;5067060;28;20187;-57
2023/07/25 09:06:11;;;;;;;2.30;1.70;;;22.90;56.80;;;;;;5067366;28;20211;-54
2023/07/25 09:08:39;;;;;;;4.50;1.60;;;22.90;56.80;;;;;;5066083;28;20222;-57
2023/07/25 09:11:07;;;;;;;1.77;1.58;;;22.90;56.70;;;;;;5065908;28;20641;-59
2023/07/25 09:13:34;;;;;;;4.68;1.98;;;22.90;56.70;;;;;;5067805;28;20244;-61
2023/07/25 09:16:01;;;;;;;4.70;1.80;;;23.00;56.80;;;;;;5054023;28;20196;-56
2023/07/25 09:18:29;;;;;;;2.90;1.80;;;23.00;56.70;;;;;;5059254;28;20218;-58
2023/07/25 09:20:59;;;;;;;2.28;1.90;;;23.00;56.60;;;;;;5069088;28;20263;-56
2023/07/25 09:23:26;;;;;;;2.25;1.60;;;23.00;56.60;;;;;;5069172;28;20310;-54
2023/07/25 09:26:10;;;;;;;6.18;1.77;;;23.00;56.50;;;;;;5067657;28;20226;-56
2023/07/25 09:28:48;;;;;;;3.13;1.83;;;23.00;56.50;;;;;;5067150;28;20248;-56
2023/07/25 09:31:16;;;;;;;3.50;1.80;;;23.00;56.40;;;;;;5069067;28;20258;-55
2023/07/25 09:33:43;;;;;;;4.05;1.85;;;23.00;56.40;;;;;;5069141;28;20260;-55
2023/07/25 09:36:11;;;;;;;2.55;1.70;;;23.00;56.40;;;;;;5069499;28;20272;-55
2023/07/25 09:38:48;;;;;;;2.25;1.70;;;23.00;56.40;;;;;;5062857;28;20223;-55
2023/07/25 09:41:16;;;;;;;4.00;1.73;;;23.00;56.30;;;;;;5047632;28;20229;-54
2023/07/25 09:43:43;;;;;;;2.63;1.67;;;23.00;56.30;;;;;;5050830;28;20213;-55
2023/07/25 09:46:11;;;;;;;2.78;1.88;;;23.00;56.30;;;;;;5049227;28;20191;-56
2023/07/25 09:48:40;;;;;;;4.97;2.00;;;23.10;56.40;;;;;;5056638;28;20191;-56
2023/07/25 09:51:07;;;;;;;3.50;1.70;;;23.10;56.30;;;;;;5068291;28;20256;-58
2023/07/25 09:53:36;;;;;;;2.50;1.70;;;23.10;56.30;;;;;;5075942;28;20754;-55
2023/07/25 09:56:04;;;;;;;7.90;1.90;;;23.10;56.20;;;;;;5086430;28;20191;-54
2023/07/25 09:58:32;;;;;;;7.30;1.90;;;23.10;56.20;;;;;;5084111;28;21115;-56
2023/07/25 10:00:59;;;;;;;3.25;2.10;;;23.10;56.20;;;;;;5045067;28;20844;-54
2023/07/25 10:03:29;;;;;;;1.90;1.63;;;23.10;56.10;;;;;;5054692;28;20218;-57
2023/07/25 10:05:57;;;;;;;2.70;1.90;;;23.10;56.10;;;;;;5068464;28;20244;-55
2023/07/25 10:08:25;;;;;;;4.55;2.25;;;23.10;56.00;;;;;;5068299;28;20312;-55
2023/07/25 10:10:57;;;;;;;4.25;1.73;;;23.10;56.00;;;;;;5066656;28;20183;-56
2023/07/25 10:16:07;;;;;;;2.78;1.80;;;23.10;55.90;;;;;;5065767;28;20221;-56
2023/07/25 10:18:35;;;;;;;5.68;1.85;;;23.00;55.80;;;;;;5068609;28;20215;-57
2023/07/25 10:21:05;;;;;;;3.22;1.90;;;23.00;55.70;;;;;;5071567;28;20218;-54
2023/07/25 10:23:35;;;;;;;1.48;1.38;;;23.00;55.70;;;;;;5071106;28;20352;-55
2023/07/25 10:26:13;;;;;;;2.03;1.63;;;23.00;55.70;;;;;;5049602;28;20704;-54
2023/07/25 10:28:47;;;;;;;5.18;1.50;;;23.00;55.70;;;;;;5066647;28;20219;-53
2023/07/25 10:31:23;;;;;;;2.65;1.70;;;23.10;55.70;;;;;;5065793;28;20235;-54
2023/07/25 10:33:54;;;;;;;2.75;1.85;;;23.00;55.60;;;;;;5056576;28;20219;-53
2023/07/25 10:36:23;;;;;;;1.98;1.52;;;23.00;55.60;;;;;;5056377;28;20278;-56
2023/07/25 10:38:52;;;;;;;4.18;1.80;;;23.00;55.60;;;;;;5060904;28;20222;-55
2023/07/25 10:41:22;;;;;;;3.30;1.67;;;23.00;55.50;;;;;;5058799;28;20215;-56
2023/07/25 10:43:57;;;;;;;2.08;1.67;;;23.00;55.50;;;;;;5059387;28;20215;-53
2023/07/25 10:46:37;;;;;;;2.45;1.95;;;22.90;55.40;;;;;;5059097;28;20178;-56
2023/07/25 10:49:15;;;;;;;2.85;1.83;;;23.00;55.60;;;;;;5061926;28;20668;-52
2023/07/25 10:51:50;;;;;;;3.85;1.88;;;22.90;55.50;;;;;;5064304;28;20280;-55
2023/07/25 10:54:20;;;;;;;2.28;1.60;;;22.90;55.40;;;;;;5071164;28;20698;-55
2023/07/25 10:57:14;;;;;;;1.67;1.48;;;22.90;55.40;;;;;;5068607;28;20195;-56
2023/07/25 11:00:01;;;;;;;3.28;1.60;;;22.90;55.30;;;;;;5010201;28;20193;-55
2023/07/25 11:02:32;;;;;;;1.45;1.35;;;22.90;55.30;;;;;;5011614;28;20216;-55
2023/07/25 11:05:22;;;;;;;2.38;1.88;;;22.90;55.30;;;;;;5011595;28;20232;-55
2023/07/25 11:07:57;;;;;;;2.53;1.65;;;22.80;55.10;;;;;;5011025;28;20236;-56
2023/07/25 11:10:29;;;;;;;2.35;1.73;;;22.80;55.10;;;;;;5009521;28;20323;-53
2023/07/25 11:12:59;;;;;;;2.50;1.45;;;22.80;55.10;;;;;;5011381;28;20252;-61
2023/07/25 11:15:27;;;;;;;2.13;1.55;;;22.80;55.10;;;;;;5009869;28;20258;-63
2023/07/25 11:17:55;;;;;;;2.30;1.52;;;22.90;55.20;;;;;;5005255;28;20300;-58
2023/07/25 11:20:23;;;;;;;2.28;1.67;;;22.80;55.00;;;;;;5010194;28;20198;-62
2023/07/25 11:22:52;;;;;;;2.20;1.50;;;22.80;54.90;;;;;;4998888;28;20770;-62
2023/07/25 11:25:20;;;;;;;2.50;1.60;;;22.80;54.90;;;;;;5009103;28;20288;-58
2023/07/25 11:27:48;;;;;;;2.95;1.70;;;22.80;54.90;;;;;;4997102;28;20269;-62
2023/07/25 11:30:18;;;;;;;1.95;1.42;;;22.80;54.80;;;;;;5006086;28;20705;-58
2023/07/25 11:32:49;;;;;;;2.00;1.38;;;22.80;54.90;;;;;;5010546;28;20251;-60
2023/07/25 11:35:16;;;;;;;1.73;1.42;;;22.80;54.80;;;;;;5009575;28;20287;-63
2023/07/25 11:37:44;;;;;;;2.85;1.48;;;22.80;54.80;;;;;;5045831;28;20783;-62
2023/07/25 11:40:16;;;;;;;3.22;1.38;;;22.80;54.80;;;;;;5063919;28;20766;-60
2023/07/25 11:42:44;;;;;;;2.45;1.52;;;22.80;54.70;;;;;;5070481;28;20298;-62
2023/07/25 11:45:12;;;;;;;1.77;1.60;;;22.80;54.90;;;;;;5068942;28;20245;-59
2023/07/25 11:47:43;;;;;;;4.78;1.52;;;22.80;54.60;;;;;;5069962;28;20250;-60
2023/07/25 11:50:11;;;;;;;2.65;1.30;;;22.80;54.60;;;;;;5070337;28;20219;-60
2023/07/25 11:52:43;;;;;;;2.08;1.58;;;22.80;54.50;;;;;;5070362;28;20311;-60
2023/07/25 11:55:11;;;;;;;2.20;1.63;;;22.80;54.50;;;;;;5068228;28;20285;-56
2023/07/25 11:57:40;;;;;;;3.88;1.50;;;22.80;54.50;;;;;;5070140;28;20247;-60
2023/07/25 12:00:11;;;;;;;4.30;1.60;;;22.80;54.40;;;;;;5064872;28;20205;-58
2023/07/25 12:02:39;;;;;;;1.92;1.73;;;22.80;54.50;;;;;;5063722;28;20241;-60
2023/07/25 12:05:08;;;;;;;1.85;1.48;;;22.80;54.50;;;;;;5063705;28;20231;-57
2023/07/25 12:07:49;;;;;;;3.53;1.65;;;22.80;54.40;;;;;;5043050;28;20296;-62
2023/07/25 12:10:26;;;;;;;7.88;1.70;;;22.80;54.20;;;;;;5060776;28;20190;-60
2023/07/25 12:12:53;;;;;;;8.93;1.67;;;22.70;54.40;;;;;;5066161;28;20213;-60
2023/07/25 12:15:20;;;;;;;13.57;1.88;;;22.80;54.40;;;;;;5074005;28;20277;-65
2023/07/25 12:17:50;;;;;;;9.68;2.17;;;22.80;54.80;;;;;;5080575;28;20335;-65
2023/07/25 12:20:20;;;;;;;3.50;1.98;;;22.80;54.70;;;;;;5052844;28;20704;-59
2023/07/25 12:22:48;;;;;;;3.83;2.00;;;22.80;54.60;;;;;;5058678;28;20234;-58
2023/07/25 12:25:19;;;;;;;5.78;1.80;;;22.80;54.60;;;;;;5057649;28;20234;-61
2023/07/25 12:27:47;;;;;;;5.40;2.08;;;22.80;54.70;;;;;;5050954;28;20214;-65
2023/07/25 12:30:17;;;;;;;2.75;1.80;;;22.80;54.70;;;;;;5057935;28;20233;-59
2023/07/25 12:32:44;;;;;;;3.70;2.20;;;22.80;54.70;;;;;;5065931;28;20309;-58
2023/07/25 12:35:15;;;;;;;5.55;1.77;;;22.80;54.80;;;;;;5070324;28;20229;-68
2023/07/25 12:37:44;;;;;;;4.35;1.73;;;22.90;54.80;;;;;;5085248;28;20209;-61
2023/07/25 12:40:12;;;;;;;3.63;1.70;;;23.00;54.70;;;;;;5084253;28;20182;-65
2023/07/25 12:42:39;;;;;;;8.45;1.75;;;23.00;54.50;;;;;;5084888;28;20233;-61
2023/07/25 12:45:07;;;;;;;3.60;1.85;;;23.10;54.70;;;;;;5086537;28;20258;-65
2023/07/25 12:47:36;;;;;;;5.45;1.92;;;23.10;54.60;;;;;;5076326;28;20306;-58
2023/07/25 12:50:03;;;;;;;6.57;2.00;;;23.20;54.50;;;;;;5066933;28;20711;-62
2023/07/25 12:52:30;;;;;;;6.85;1.80;;;23.20;54.40;;;;;;5067217;28;20187;-52
2023/07/25 12:54:59;;;;;;;3.40;1.70;;;23.20;54.30;;;;;;5065162;28;20193;-56
2023/07/25 12:57:29;;;;;;;6.95;2.45;;;23.20;54.40;;;;;;5066981;28;20187;-63
2023/07/25 12:59:56;;;;;;;2.47;1.65;;;23.30;54.50;;;;;;5062851;28;20217;-58
2023/07/25 13:02:23;;;;;;;8.40;1.80;;;23.30;54.40;;;;;;5063765;28;20276;-62
2023/07/25 13:04:50;;;;;;;2.67;1.60;;;23.30;54.30;;;;;;5062189;28;20226;-64
2023/07/25 13:07:20;;;;;;;5.25;1.75;;;23.40;54.20;;;;;;5065805;28;20226;-64
2023/07/25 13:09:52;;;;;;;6.68;2.10;;;23.40;54.00;;;;;;5064008;28;20270;-61
2023/07/25 13:12:20;;;;;;;2.40;1.52;;;23.40;53.80;;;;;;5061806;28;20209;-58
2023/07/25 13:14:48;;;;;;;7.53;1.63;;;23.40;53.80;;;;;;5065092;28;20282;-59
2023/07/25 13:17:15;;;;;;;3.00;1.83;;;23.40;53.70;;;;;;5076958;28;20607;-61